Time;durP1;ratioP1;P1;durP2;ratioP2;P2;SDS_P1;SDS_P2;PMS_P1;PMS_P2;Temp;Humidity;BMP_temperature;BMP_pressure;BME280_temperature;BME280_humidity;BME280_pressure;Samples;Min_cycle;Max_cycle;Signal;HPM_P1;HPM_P2
2022/07/18 00:02:07;;;;;;;7.40;2.50;;;;;;;14.96;61.77;101180.84;103248;1277;138957;-67
2022/07/18 00:04:35;;;;;;;5.50;2.40;;;;;;;14.93;62.01;101182.37;103625;1277;99521;-70
2022/07/18 00:07:03;;;;;;;6.60;2.20;;;;;;;14.98;61.97;101181.83;103444;1277;108729;-69
2022/07/18 00:09:31;;;;;;;6.50;2.50;;;;;;;14.97;62.30;101179.18;103318;1277;138916;-69
2022/07/18 00:12:05;;;;;;;7.50;2.40;;;;;;;14.96;61.94;101179.95;103372;1278;94313;-69
2022/07/18 00:14:34;;;;;;;6.10;2.30;;;;;;;14.97;62.07;101180.11;103774;1276;140185;-69
2022/07/18 00:17:02;;;;;;;6.10;2.50;;;;;;;14.90;61.99;101185.33;103668;1277;99572;-69
2022/07/18 00:19:31;;;;;;;6.40;2.20;;;;;;;14.90;62.26;101180.66;103370;1276;109579;-68
2022/07/18 00:22:00;;;;;;;6.50;2.40;;;;;;;14.90;61.97;101177.11;103272;1277;94728;-68
2022/07/18 00:24:28;;;;;;;5.10;2.30;;;;;;;14.86;62.29;101182.92;103594;1277;94372;-69
2022/07/18 00:26:56;;;;;;;6.40;2.20;;;;;;;14.82;62.49;101183.25;103272;1277;139216;-69
2022/07/18 00:29:25;;;;;;;5.70;2.50;;;;;;;14.82;62.68;101179.86;103450;1277;99414;-69
2022/07/18 00:31:53;;;;;;;5.70;2.10;;;;;;;14.86;62.34;101179.17;103355;1277;139433;-69
2022/07/18 00:34:21;;;;;;;6.60;2.20;;;;;;;14.91;62.34;101177.96;103386;1277;94887;-67
2022/07/18 00:36:49;;;;;;;6.00;2.00;;;;;;;14.90;62.25;101178.17;103455;1277;94386;-69
2022/07/18 00:39:17;;;;;;;7.20;2.80;;;;;;;14.90;62.40;101178.36;103330;1277;138305;-67
2022/07/18 00:41:49;;;;;;;5.70;2.40;;;;;;;14.94;61.98;101176.78;103457;1277;99355;-69
2022/07/18 00:44:24;;;;;;;6.50;2.30;;;;;;;14.99;61.97;101175.37;103460;1277;138141;-68
2022/07/18 00:46:54;;;;;;;5.70;2.60;;;;;;;15.04;61.56;101175.23;103599;1277;95642;-69
2022/07/18 00:49:22;;;;;;;6.60;2.70;;;;;;;15.03;61.59;101175.58;103562;1277;94547;-70
2022/07/18 00:51:51;;;;;;;6.90;2.80;;;;;;;15.04;61.46;101174.84;103338;1277;138318;-69
2022/07/18 00:54:19;;;;;;;6.40;2.80;;;;;;;15.04;61.41;101173.59;103552;1276;99605;-69
2022/07/18 00:56:49;;;;;;;6.40;2.40;;;;;;;15.09;61.16;101172.55;103327;1277;138283;-69
2022/07/18 00:59:17;;;;;;;6.40;2.80;;;;;;;15.14;61.37;101171.69;103581;1277;94533;-69
2022/07/18 01:01:47;;;;;;;6.60;2.50;;;;;;;15.12;61.53;101173.52;104155;1277;138117;-69
2022/07/18 01:04:17;;;;;;;6.60;2.50;;;;;;;15.09;61.43;101174.70;103644;1277;107396;-69
2022/07/18 01:06:47;;;;;;;6.30;2.60;;;;;;;15.06;61.58;101176.04;103445;1278;99436;-69
2022/07/18 01:09:17;;;;;;;7.10;2.40;;;;;;;15.01;61.92;101172.80;103202;1277;138779;-69
2022/07/18 01:11:47;;;;;;;6.00;2.30;;;;;;;14.98;61.93;101174.52;103524;1277;95587;-69
2022/07/18 01:14:15;;;;;;;7.50;2.60;;;;;;;15.00;61.50;101180.70;103855;1278;138111;-68
2022/07/18 01:16:44;;;;;;;5.90;2.70;;;;;;;15.03;61.25;101178.27;103525;1277;107649;-69
2022/07/18 01:19:12;;;;;;;6.00;2.60;;;;;;;15.03;61.31;101180.77;103417;1277;99452;-69
2022/07/18 01:21:40;;;;;;;6.20;2.50;;;;;;;14.99;61.56;101177.89;103313;1277;138759;-68
2022/07/18 01:24:08;;;;;;;7.90;2.70;;;;;;;15.00;61.72;101180.88;103499;1277;94606;-69
2022/07/18 01:26:36;;;;;;;6.90;2.70;;;;;;;15.00;61.77;101185.02;103572;1277;138287;-69
2022/07/18 01:29:05;;;;;;;6.80;2.80;;;;;;;15.00;61.58;101186.42;103506;1277;108456;-69
2022/07/18 01:31:33;;;;;;;6.90;3.00;;;;;;;15.01;61.64;101189.09;103630;1277;99444;-69
2022/07/18 01:34:02;;;;;;;6.30;2.50;;;;;;;14.97;61.62;101189.57;103319;1277;109266;-69
2022/07/18 01:36:31;;;;;;;6.90;2.80;;;;;;;14.95;61.68;101190.69;103748;1277;94325;-69
2022/07/18 01:38:59;;;;;;;6.50;2.70;;;;;;;14.94;61.71;101191.80;103392;1277;138455;-69
2022/07/18 01:41:27;;;;;;;6.80;2.80;;;;;;;14.92;61.81;101194.90;103264;1277;108330;-69
2022/07/18 01:43:55;;;;;;;6.30;2.80;;;;;;;14.94;61.65;101190.21;103195;1277;138344;-69
2022/07/18 01:46:23;;;;;;;7.50;3.30;;;;;;;14.93;61.83;101190.24;103307;1277;109795;-68
2022/07/18 01:48:51;;;;;;;6.90;3.00;;;;;;;14.91;61.62;101186.73;103292;1277;94459;-69
2022/07/18 01:51:19;;;;;;;8.50;3.10;;;;;;;14.93;61.77;101185.04;103672;1276;138745;-69
2022/07/18 01:53:55;;;;;;;6.40;2.40;;;;;;;14.95;61.58;101186.42;103349;1276;107822;-69
2022/07/18 01:56:23;;;;;;;7.00;2.90;;;;;;;14.93;61.79;101189.15;103422;1277;138298;-69
2022/07/18 01:58:52;;;;;;;7.20;3.00;;;;;;;14.90;61.74;101184.98;103416;1277;109167;-69
2022/07/18 02:01:20;;;;;;;6.60;3.00;;;;;;;14.85;61.84;101189.74;103337;1277;94631;-69
2022/07/18 02:03:48;;;;;;;7.90;3.10;;;;;;;14.81;62.23;101193.83;103242;1277;139137;-68
2022/07/18 02:06:16;;;;;;;6.60;2.90;;;;;;;14.84;61.99;101198.90;103386;1277;108393;-70
2022/07/18 02:08:44;;;;;;;5.90;2.50;;;;;;;14.86;61.90;101199.94;103244;1277;138111;-68
2022/07/18 02:11:12;;;;;;;7.30;3.10;;;;;;;14.87;61.97;101200.98;103423;1277;108821;-69
2022/07/18 02:13:40;;;;;;;7.20;3.00;;;;;;;14.85;61.99;101201.93;103297;1277;138420;-69
2022/07/18 02:16:08;;;;;;;6.30;2.70;;;;;;;14.84;61.99;101201.05;103413;1277;94824;-67
2022/07/18 02:18:36;;;;;;;7.10;2.90;;;;;;;14.84;62.11;101202.31;103336;1277;107025;-69
2022/07/18 02:21:10;;;;;;;5.60;2.60;;;;;;;14.85;62.06;101203.34;103162;1277;141460;-69
2022/07/18 02:23:38;;;;;;;7.50;3.10;;;;;;;14.86;61.84;101205.29;103700;1277;108802;-69
2022/07/18 02:26:07;;;;;;;6.80;3.00;;;;;;;14.81;62.09;101206.52;103243;1277;138403;-68
2022/07/18 02:28:35;;;;;;;7.40;3.20;;;;;;;14.74;62.19;101207.63;103366;1277;95148;-69
2022/07/18 02:31:05;;;;;;;6.80;2.90;;;;;;;14.72;62.54;101207.52;103421;1277;108359;-68
2022/07/18 02:33:33;;;;;;;7.70;3.00;;;;;;;14.65;62.62;101210.23;103342;1277;139160;-70
2022/07/18 02:36:01;;;;;;;6.70;2.90;;;;;;;14.65;62.76;101208.06;103270;1277;109267;-68
2022/07/18 02:38:30;;;;;;;7.10;2.90;;;;;;;14.61;62.86;101206.01;103689;1276;138205;-68
2022/07/18 02:40:58;;;;;;;7.50;3.10;;;;;;;14.65;62.55;101208.60;103338;1277;94726;-69
2022/07/18 02:43:27;;;;;;;7.20;3.20;;;;;;;14.66;62.42;101211.79;103338;1277;108571;-69
2022/07/18 02:45:55;;;;;;;7.30;3.30;;;;;;;14.68;62.54;101209.77;104537;1276;138710;-70
2022/07/18 02:48:23;;;;;;;7.40;3.20;;;;;;;14.61;62.79;101208.02;103398;1277;108811;-67
2022/07/18 02:50:52;;;;;;;8.00;3.30;;;;;;;14.55;62.85;101204.77;103276;1277;138860;-68
2022/07/18 02:53:23;;;;;;;7.90;3.20;;;;;;;14.51;62.74;101206.32;103637;1277;94317;-68
2022/07/18 02:55:51;;;;;;;8.10;3.00;;;;;;;14.50;62.83;101205.46;104059;1277;138813;-68
2022/07/18 02:58:19;;;;;;;8.10;3.20;;;;;;;14.51;62.76;101204.17;103407;1277;98924;-67
2022/07/18 03:00:47;;;;;;;6.70;3.10;;;;;;;14.50;62.92;101203.13;103380;1277;108302;-69
2022/07/18 03:03:15;;;;;;;7.50;3.20;;;;;;;14.50;62.90;101205.28;103240;1277;138302;-70
2022/07/18 03:05:43;;;;;;;7.40;3.20;;;;;;;14.54;62.84;101205.86;103356;1277;94312;-68
2022/07/18 03:08:11;;;;;;;7.00;3.30;;;;;;;14.58;62.60;101208.98;103251;1277;138413;-69
2022/07/18 03:10:39;;;;;;;7.20;3.00;;;;;;;14.55;62.69;101208.70;103779;1277;98419;-69
2022/07/18 03:13:07;;;;;;;7.00;3.40;;;;;;;14.53;62.79;101213.94;103225;1276;108420;-69
2022/07/18 03:15:35;;;;;;;7.10;3.50;;;;;;;14.48;62.89;101214.98;103136;1277;138187;-69
2022/07/18 03:18:03;;;;;;;6.90;3.40;;;;;;;14.48;62.89;101213.36;103274;1277;94870;-70
2022/07/18 03:20:32;;;;;;;7.50;3.20;;;;;;;14.50;62.95;101211.52;103181;1277;138337;-69
2022/07/18 03:23:07;;;;;;;7.40;3.30;;;;;;;14.53;62.83;101210.90;103576;1277;99198;-69
2022/07/18 03:25:35;;;;;;;6.10;3.00;;;;;;;14.54;62.81;101212.10;103222;1276;139007;-69
2022/07/18 03:28:03;;;;;;;9.10;3.40;;;;;;;14.57;62.81;101210.78;104051;1276;94334;-69
2022/07/18 03:30:31;;;;;;;7.10;3.20;;;;;;;14.60;62.79;101214.63;103360;1277;94876;-69
2022/07/18 03:32:59;;;;;;;7.00;3.40;;;;;;;14.62;62.78;101216.17;103327;1277;137981;-68
2022/07/18 03:35:33;;;;;;;6.70;3.40;;;;;;;14.61;62.69;101216.20;103406;1277;99569;-69
2022/07/18 03:38:01;;;;;;;8.40;3.60;;;;;;;14.58;62.76;101217.72;103310;1277;139267;-69
2022/07/18 03:40:29;;;;;;;8.00;3.40;;;;;;;14.61;62.81;101221.03;103358;1277;95433;-69
2022/07/18 03:42:57;;;;;;;8.20;3.30;;;;;;;14.62;62.73;101224.23;103378;1277;94736;-69
2022/07/18 03:45:25;;;;;;;10.10;3.30;;;;;;;14.62;62.81;101223.14;103227;1277;138280;-69
2022/07/18 03:47:54;;;;;;;11.60;4.60;;;;;;;14.64;62.63;101222.75;103132;1277;258356;-67
2022/07/18 03:50:23;;;;;;;8.40;3.50;;;;;;;14.68;62.73;101226.39;104111;1278;138353;-68
2022/07/18 03:52:51;;;;;;;8.20;3.40;;;;;;;14.65;62.76;101226.83;103317;1277;94277;-69
2022/07/18 03:55:19;;;;;;;7.90;3.70;;;;;;;14.64;62.99;101234.55;103323;1277;95436;-67
2022/07/18 03:57:47;;;;;;;7.60;3.40;;;;;;;14.64;62.90;101235.63;103337;1276;138651;-68
2022/07/18 04:00:16;;;;;;;7.70;3.60;;;;;;;14.67;62.92;101236.06;103293;1277;99945;-70
2022/07/18 04:02:47;;;;;;;8.00;3.70;;;;;;;14.71;62.86;101235.41;103557;1276;137964;-69
2022/07/18 04:05:15;;;;;;;7.40;3.40;;;;;;;14.76;62.85;101233.68;103424;1277;94396;-69
2022/07/18 04:07:44;;;;;;;7.90;3.60;;;;;;;14.82;62.68;101235.80;103216;1277;139099;-69
2022/07/18 04:10:12;;;;;;;7.70;3.20;;;;;;;14.82;62.74;101233.86;103256;1276;108677;-68
2022/07/18 04:12:54;;;;;;;7.50;3.50;;;;;;;14.85;62.63;101234.29;103339;1277;99415;-69
2022/07/18 04:15:24;;;;;;;7.80;4.00;;;;;;;14.85;62.73;101236.41;103257;1276;138616;-68
2022/07/18 04:17:52;;;;;;;7.40;3.80;;;;;;;14.89;62.66;101240.61;103438;1276;94890;-67
2022/07/18 04:20:21;;;;;;;7.60;3.60;;;;;;;14.90;63.06;101235.73;103216;1276;138835;-69
2022/07/18 04:22:53;;;;;;;7.90;3.40;;;;;;;14.92;62.86;101235.86;103523;1276;108990;-70
2022/07/18 04:25:23;;;;;;;6.40;3.30;;;;;;;15.01;62.86;101230.20;103560;1276;99434;-68
2022/07/18 04:27:53;;;;;;;9.10;3.70;;;;;;;15.08;62.49;101230.73;103839;1276;137836;-68
2022/07/18 04:30:23;;;;;;;9.70;3.60;;;;;;;15.09;62.35;101226.21;103544;1276;94811;-69
2022/07/18 04:32:51;;;;;;;7.60;3.90;;;;;;;15.15;62.70;101224.95;103417;1276;138391;-69
2022/07/18 04:35:22;;;;;;;7.80;3.70;;;;;;;15.17;62.50;101223.08;103895;1276;108511;-69
2022/07/18 04:37:50;;;;;;;6.90;3.40;;;;;;;15.23;62.28;101223.27;103330;1276;138951;-69
2022/07/18 04:40:19;;;;;;;7.20;3.50;;;;;;;15.27;62.34;101218.13;103375;1276;107795;-69
2022/07/18 04:42:47;;;;;;;8.60;3.40;;;;;;;15.32;62.30;101220.83;103604;1276;94294;-69
2022/07/18 04:45:15;;;;;;;8.00;3.50;;;;;;;15.35;62.28;101222.49;103262;1276;138074;-69
2022/07/18 04:47:43;;;;;;;8.50;3.60;;;;;;;15.44;62.25;101222.76;103624;1276;108418;-69
2022/07/18 04:50:11;;;;;;;8.60;3.70;;;;;;;15.46;62.17;101223.21;103334;1276;138392;-68
2022/07/18 04:52:42;;;;;;;8.40;3.50;;;;;;;15.48;61.96;101224.05;103395;1276;108829;-69
2022/07/18 04:55:12;;;;;;;7.80;3.70;;;;;;;15.49;62.17;101226.68;103419;1276;94318;-68
2022/07/18 04:57:40;;;;;;;7.00;3.30;;;;;;;15.59;62.33;101226.89;103842;1276;138463;-69
2022/07/18 05:00:20;;;;;;;7.30;3.40;;;;;;;15.67;62.28;101227.72;103702;1276;108761;-69
2022/07/18 05:02:50;;;;;;;6.70;3.50;;;;;;;15.70;62.02;101231.55;103522;1276;138246;-69
2022/07/18 05:05:19;;;;;;;7.80;3.50;;;;;;;15.71;61.95;101232.41;103367;1276;107925;-70
2022/07/18 05:07:48;;;;;;;11.20;5.40;;;;;;;15.80;61.91;101234.61;103477;1276;139084;-69
2022/07/18 05:10:20;;;;;;;11.90;7.20;;;;;;;15.86;61.65;101237.09;103771;1276;94325;-68
2022/07/18 05:12:52;;;;;;;8.40;3.60;;;;;;;15.93;61.63;101236.69;104166;1276;108330;-70
2022/07/18 05:15:23;;;;;;;7.50;3.40;;;;;;;16.02;61.54;101235.29;104108;1276;138197;-70
2022/07/18 05:17:52;;;;;;;9.90;3.80;;;;;;;16.13;61.32;101237.42;104307;1276;107310;-70
2022/07/18 05:20:23;;;;;;;8.50;3.80;;;;;;;16.18;60.95;101238.13;104140;1276;138593;-67
2022/07/18 05:22:52;;;;;;;8.00;3.50;;;;;;;16.24;60.93;101237.20;103650;1276;94861;-67
2022/07/18 05:25:24;;;;;;;6.40;3.20;;;;;;;16.31;60.91;101237.12;103686;1277;108364;-69
2022/07/18 05:27:53;;;;;;;7.80;3.40;;;;;;;16.37;60.81;101236.73;104152;1276;138279;-69
2022/07/18 05:30:23;;;;;;;7.80;3.50;;;;;;;16.47;60.78;101236.38;104849;1276;107872;-69
2022/07/18 05:32:54;;;;;;;7.30;3.30;;;;;;;16.52;60.46;101235.27;104193;1276;138316;-69
2022/07/18 05:35:22;;;;;;;7.10;3.30;;;;;;;16.61;60.35;101235.30;103571;1277;94647;-69
2022/07/18 05:37:50;;;;;;;7.60;3.20;;;;;;;16.65;60.25;101234.98;103432;1277;138243;-70
2022/07/18 05:40:18;;;;;;;7.50;2.90;;;;;;;16.67;60.05;101230.58;103566;1277;99551;-67
2022/07/18 05:42:49;;;;;;;8.10;3.20;;;;;;;16.75;60.12;101233.15;104183;1277;108807;-71
2022/07/18 05:45:24;;;;;;;6.40;3.00;;;;;;;16.83;59.95;101231.58;104031;1277;138233;-67
2022/07/18 05:47:53;;;;;;;7.90;3.10;;;;;;;16.91;59.76;101231.13;104071;1277;94815;-70
2022/07/18 05:50:23;;;;;;;7.00;2.50;;;;;;;16.92;59.58;101232.89;103567;1276;138100;-69
2022/07/18 05:52:51;;;;;;;7.50;3.40;;;;;;;16.97;59.71;101232.52;103499;1277;99430;-69
2022/07/18 05:55:20;;;;;;;7.20;3.10;;;;;;;17.00;59.70;101233.11;103770;1276;108763;-69
2022/07/18 05:57:49;;;;;;;7.10;2.90;;;;;;;17.03;59.78;101234.20;103479;1277;138719;-70
2022/07/18 06:00:18;;;;;;;7.50;2.80;;;;;;;17.14;59.98;101234.32;103733;1277;94645;-69
2022/07/18 06:02:48;;;;;;;7.50;3.00;;;;;;;17.21;59.45;101229.72;103800;1276;138088;-69
2022/07/18 06:05:17;;;;;;;7.00;2.70;;;;;;;17.29;59.52;101230.49;103674;1277;99146;-69
2022/07/18 06:07:54;;;;;;;6.70;2.60;;;;;;;17.35;59.12;101231.13;103478;1276;138694;-70
2022/07/18 06:10:24;;;;;;;7.10;2.90;;;;;;;17.40;58.71;101230.23;103699;1277;94683;-69
2022/07/18 06:12:54;;;;;;;7.70;3.20;;;;;;;17.41;58.69;101230.71;103868;1276;94360;-69
2022/07/18 06:15:23;;;;;;;7.40;2.90;;;;;;;17.44;58.73;101232.57;103630;1276;138044;-70
2022/07/18 06:17:51;;;;;;;7.10;2.90;;;;;;;17.47;58.68;101229.20;103692;1277;99558;-69
2022/07/18 06:20:19;;;;;;;7.60;2.80;;;;;;;17.53;58.56;101230.95;103556;1277;137254;-69
2022/07/18 06:22:47;;;;;;;9.60;3.00;;;;;;;17.54;58.45;101231.06;103683;1277;94703;-68
2022/07/18 06:25:15;;;;;;;7.10;2.80;;;;;;;17.58;58.29;101227.70;103527;1277;95439;-68
2022/07/18 06:27:44;;;;;;;7.70;2.80;;;;;;;17.64;58.62;101228.31;103455;1276;139180;-69
2022/07/18 06:30:12;;;;;;;6.80;2.70;;;;;;;17.69;58.53;101227.37;103823;1277;99032;-69
2022/07/18 06:32:41;;;;;;;8.40;2.90;;;;;;;17.79;58.32;101229.66;103481;1277;138047;-70
2022/07/18 06:35:09;;;;;;;8.30;2.90;;;;;;;17.86;58.37;101230.45;104158;1276;94315;-69
2022/07/18 06:37:37;;;;;;;8.90;3.20;;;;;;;17.97;58.02;101230.90;104044;1277;138195;-69
2022/07/18 06:40:06;;;;;;;7.20;3.00;;;;;;;18.02;57.69;101232.29;103597;1277;108911;-68
2022/07/18 06:42:34;;;;;;;9.30;3.00;;;;;;;18.06;57.78;101229.58;104201;1277;99351;-68
2022/07/18 06:45:05;;;;;;;8.60;3.20;;;;;;;18.19;57.70;101232.45;103455;1276;137974;-70
2022/07/18 06:47:40;;;;;;;7.20;2.90;;;;;;;18.31;57.79;101228.67;103555;1276;94319;-68
2022/07/18 06:50:09;;;;;;;9.50;4.10;;;;;;;18.40;57.73;101226.47;103575;1277;138605;-68
2022/07/18 06:52:39;;;;;;;7.90;4.20;;;;;;;18.42;56.83;101221.18;103703;1277;108338;-71
2022/07/18 06:55:09;;;;;;;8.90;4.10;;;;;;;18.45;56.68;101222.64;104541;1277;99511;-69
2022/07/18 06:57:38;;;;;;;8.80;4.40;;;;;;;18.50;56.98;101224.73;103947;1277;137907;-70
2022/07/18 07:00:09;;;;;;;9.10;4.40;;;;;;;18.51;56.78;101224.15;104179;1277;94286;-69
2022/07/18 07:02:48;;;;;;;8.80;4.00;;;;;;;18.58;56.90;101224.38;104168;1277;137914;-69
2022/07/18 07:05:18;;;;;;;8.00;4.20;;;;;;;18.71;56.91;101222.86;104198;1276;106853;-69
2022/07/18 07:07:48;;;;;;;9.90;4.20;;;;;;;18.77;56.27;101224.93;104038;1277;138241;-68
2022/07/18 07:10:17;;;;;;;8.30;4.10;;;;;;;18.82;56.74;101218.92;103537;1277;108821;-70
2022/07/18 07:12:48;;;;;;;7.60;3.80;;;;;;;18.91;56.18;101221.59;103585;1277;94885;-70
2022/07/18 07:15:19;;;;;;;8.90;4.00;;;;;;;19.05;55.92;101220.23;104350;1276;137949;-69
2022/07/18 07:17:47;;;;;;;8.10;4.30;;;;;;;19.15;55.47;101219.70;104215;1277;105469;-70
2022/07/18 07:20:21;;;;;;;7.60;3.40;;;;;;;19.27;55.84;101215.70;104131;1277;138353;-70
2022/07/18 07:22:54;;;;;;;9.10;3.80;;;;;;;19.32;55.17;101214.91;104245;1276;109068;-70
2022/07/18 07:25:25;;;;;;;7.10;3.40;;;;;;;19.38;55.34;101213.38;104339;1277;95555;-70
2022/07/18 07:27:54;;;;;;;6.80;2.90;;;;;;;19.44;55.32;101215.42;104251;1277;137851;-70
2022/07/18 07:30:22;;;;;;;7.30;2.90;;;;;;;19.54;54.54;101217.60;104361;1276;108370;-69
2022/07/18 07:32:51;;;;;;;7.80;2.80;;;;;;;19.62;54.86;101216.11;104298;1276;138309;-70
2022/07/18 07:35:19;;;;;;;9.70;3.20;;;;;;;19.74;54.83;101222.52;104342;1277;106910;-70
2022/07/18 07:37:50;;;;;;;6.20;2.60;;;;;;;19.90;54.49;101216.34;104218;1277;138196;-70
2022/07/18 07:40:19;;;;;;;6.10;2.30;;;;;;;20.03;54.31;101214.20;104495;1276;94306;-70
2022/07/18 07:42:47;;;;;;;5.90;2.30;;;;;;;20.11;53.52;101213.42;104470;1277;108058;-70
2022/07/18 07:45:16;;;;;;;6.10;2.30;;;;;;;20.11;53.35;101214.33;102956;1277;138275;-70
2022/07/18 07:47:45;;;;;;;7.00;2.90;;;;;;;20.08;53.30;101215.39;103227;1277;110114;-69
2022/07/18 07:50:13;;;;;;;7.20;2.30;;;;;;;20.11;53.68;101219.17;103781;1277;138878;-69
2022/07/18 07:52:41;;;;;;;6.40;2.70;;;;;;;20.20;53.57;101217.06;103194;1277;94305;-69
2022/07/18 07:55:09;;;;;;;6.30;2.00;;;;;;;20.22;53.18;101215.89;102938;1277;107831;-70
2022/07/18 07:57:37;;;;;;;6.90;2.30;;;;;;;20.22;53.11;101212.47;104824;1277;138325;-70
2022/07/18 08:00:08;;;;;;;5.80;1.70;;;;;;;20.25;53.11;101210.34;104271;1276;107710;-70
2022/07/18 08:02:51;;;;;;;6.50;2.00;;;;;;;20.26;52.83;101213.20;104202;1276;137997;-71
2022/07/18 08:05:29;;;;;;;6.00;2.00;;;;;;;20.28;53.09;101212.89;104407;1277;94852;-71
2022/07/18 08:07:58;;;;;;;7.90;2.20;;;;;;;20.35;53.40;101206.37;104330;1277;138247;-71
2022/07/18 08:10:27;;;;;;;6.50;1.70;;;;;;;20.49;53.56;101209.93;104365;1276;98379;-71
2022/07/18 08:12:55;;;;;;;5.20;1.80;;;;;;;20.63;53.17;101209.02;104361;1277;108974;-70
2022/07/18 08:15:24;;;;;;;7.50;2.00;;;;;;;20.69;52.45;101209.92;104269;1276;138052;-70
2022/07/18 08:17:53;;;;;;;6.60;2.00;;;;;;;20.74;52.18;101215.61;104515;1276;94835;-70
2022/07/18 08:20:22;;;;;;;5.20;1.50;;;;;;;20.76;52.20;101216.95;104221;1277;138464;-70
2022/07/18 08:23:05;;;;;;;6.30;1.70;;;;;;;20.78;51.63;101219.19;103230;1277;99466;-70
2022/07/18 08:25:36;;;;;;;6.70;1.70;;;;;;;20.88;51.65;101214.11;104561;1276;138012;-70
2022/07/18 08:28:05;;;;;;;5.40;1.90;;;;;;;20.93;51.49;101212.77;104416;1277;94325;-71
2022/07/18 08:30:34;;;;;;;6.10;1.80;;;;;;;20.98;51.48;101213.23;104290;1277;94397;-70
2022/07/18 08:33:03;;;;;;;5.90;1.70;;;;;;;20.99;51.29;101214.42;104628;1276;138819;-72
2022/07/18 08:35:32;;;;;;;6.90;2.10;;;;;;;21.09;51.49;101211.13;104277;1278;99671;-71
2022/07/18 08:38:01;;;;;;;6.70;1.60;;;;;;;21.35;51.07;101204.73;104366;1277;138133;-71
2022/07/18 08:40:30;;;;;;;6.60;1.90;;;;;;;21.49;51.10;101206.63;104359;1276;94342;-70
2022/07/18 08:42:58;;;;;;;5.10;2.10;;;;;;;21.50;51.22;101209.11;104434;1276;95635;-72
2022/07/18 08:45:46;;;;;;;6.30;1.80;;;;;;;21.68;51.21;101205.92;104502;1277;137895;-71
2022/07/18 08:48:16;;;;;;;5.70;1.80;;;;;;;21.85;51.06;101208.34;104816;1276;101542;-69
2022/07/18 08:50:45;;;;;;;5.90;1.80;;;;;;;21.96;50.26;101211.63;104257;1276;138088;-70
2022/07/18 08:53:15;;;;;;;5.70;1.70;;;;;;;22.14;49.61;101204.74;104885;1276;94883;-71
2022/07/18 08:55:44;;;;;;;7.30;2.00;;;;;;;22.10;48.95;101206.23;104292;1276;138644;-72
2022/07/18 08:58:14;;;;;;;4.40;1.80;;;;;;;22.14;49.42;101205.44;104410;1276;108182;-72
2022/07/18 09:01:02;;;;;;;7.50;2.00;;;;;;;22.29;49.12;101203.42;104402;1277;99495;-72
2022/07/18 09:03:30;;;;;;;6.10;2.00;;;;;;;22.36;49.06;101201.41;104272;1276;138860;-71
2022/07/18 09:06:07;;;;;;;5.30;1.70;;;;;;;22.43;47.96;101197.88;104371;1277;95231;-72
2022/07/18 09:08:35;;;;;;;7.30;2.00;;;;;;;22.53;47.86;101193.65;104320;1277;138544;-73
2022/07/18 09:11:08;;;;;;;5.90;1.90;;;;;;;22.74;48.06;101191.77;104375;1276;110407;-72
2022/07/18 09:13:56;;;;;;;5.90;1.60;;;;;;;22.81;47.23;101191.52;104252;1276;138872;-71
2022/07/18 09:16:24;;;;;;;6.80;2.00;;;;;;;22.82;47.29;101188.85;104475;1276;109108;-72
2022/07/18 09:18:52;;;;;;;5.60;1.90;;;;;;;23.01;48.06;101183.66;104430;1277;95207;-72
2022/07/18 09:21:22;;;;;;;5.90;1.80;;;;;;;23.17;46.49;101178.30;104251;1276;140401;-72
2022/07/18 09:23:54;;;;;;;5.40;1.70;;;;;;;23.26;47.13;101184.61;104387;1276;109313;-71
2022/07/18 09:26:43;;;;;;;5.60;1.70;;;;;;;23.33;46.10;101193.14;105035;1276;138309;-72
2022/07/18 09:29:15;;;;;;;6.10;1.60;;;;;;;23.45;46.26;101184.40;104335;1276;108730;-72
2022/07/18 09:32:03;;;;;;;5.90;1.80;;;;;;;23.59;45.65;101185.26;104243;1276;139926;-72
2022/07/18 09:34:36;;;;;;;4.80;1.60;;;;;;;23.60;45.78;101190.05;104410;1276;95807;-72
2022/07/18 09:37:10;;;;;;;6.00;1.70;;;;;;;23.99;45.11;101190.44;104406;1277;109710;-73
2022/07/18 09:39:37;;;;;;;5.60;1.60;;;;;;;24.57;43.39;101190.20;104202;1279;138271;-72
2022/07/18 09:42:16;;;;;;;6.00;2.00;;;;;;;25.15;42.53;101187.95;104391;1276;107577;-73
2022/07/18 09:45:10;;;;;;;5.90;1.60;;;;;;;26.46;41.16;101182.89;104263;1276;138287;-73
2022/07/18 09:47:58;;;;;;;4.80;1.40;;;;;;;27.80;38.73;101176.70;104355;1276;95166;-72
2022/07/18 09:50:29;;;;;;;5.80;1.50;;;;;;;28.52;37.05;101174.08;104239;1276;138182;-73
2022/07/18 09:53:14;;;;;;;4.40;1.40;;;;;;;29.64;35.81;101173.80;104302;1276;98329;-74
2022/07/18 09:56:10;;;;;;;5.60;1.60;;;;;;;30.47;33.01;101171.15;104240;1276;138900;-73
2022/07/18 09:58:51;;;;;;;5.50;1.70;;;;;;;30.38;33.14;101174.45;104488;1276;95881;-72
2022/07/18 10:01:19;;;;;;;6.90;1.60;;;;;;;29.91;33.51;101178.19;104463;1276;95300;-72
2022/07/18 10:03:51;;;;;;;5.20;1.60;;;;;;;29.67;33.70;101179.27;104260;1276;138119;-73
2022/07/18 10:06:19;;;;;;;4.70;1.30;;;;;;;30.63;33.04;101176.91;104452;1276;99449;-75
2022/07/18 10:08:47;;;;;;;5.10;1.70;;;;;;;31.47;31.61;101174.44;104241;1276;138792;-74
2022/07/18 10:11:15;;;;;;;5.50;1.50;;;;;;;31.62;30.91;101176.86;104364;1276;95699;-73
2022/07/18 10:13:44;;;;;;;4.60;1.40;;;;;;;31.83;30.33;101182.61;104355;1277;138337;-73
2022/07/18 10:16:13;;;;;;;5.50;1.30;;;;;;;32.01;30.52;101184.95;104606;1276;108491;-73
2022/07/18 10:18:41;;;;;;;5.30;1.60;;;;;;;32.56;29.72;101188.34;104535;1277;99431;-71
2022/07/18 10:21:12;;;;;;;5.40;1.60;;;;;;;32.85;29.77;101183.42;104237;1277;138154;-72
2022/07/18 10:23:43;;;;;;;5.60;1.50;;;;;;;32.25;29.27;101181.36;104768;1276;95255;-72
2022/07/18 10:26:25;;;;;;;4.40;1.40;;;;;;;31.99;29.92;101181.16;104372;1277;138501;-73
2022/07/18 10:28:59;;;;;;;4.90;1.40;;;;;;;32.27;30.51;101180.77;104833;1276;109753;-73
2022/07/18 10:31:28;;;;;;;5.20;1.60;;;;;;;32.23;30.47;101180.65;104407;1277;99590;-73
2022/07/18 10:34:06;;;;;;;4.30;1.30;;;;;;;31.74;30.32;101173.26;104783;1277;138461;-73
2022/07/18 10:36:35;;;;;;;4.60;1.40;;;;;;;30.92;31.54;101185.10;104368;1277;95550;-72
2022/07/18 10:39:13;;;;;;;5.50;1.30;;;;;;;29.99;31.91;101181.71;104296;1277;138094;-73
2022/07/18 10:41:48;;;;;;;4.60;1.40;;;;;;;29.80;33.33;101181.10;104310;1277;110005;-73
2022/07/18 10:44:31;;;;;;;5.10;1.30;;;;;;;30.55;32.23;101176.80;104314;1277;138910;-72
2022/07/18 10:47:20;;;;;;;4.60;1.40;;;;;;;29.68;32.02;101174.21;104339;1277;107990;-73
2022/07/18 10:49:57;;;;;;;6.40;1.60;;;;;;;28.92;34.30;101181.55;104235;1276;138424;-73
2022/07/18 10:52:28;;;;;;;5.20;1.50;;;;;;;28.52;34.95;101181.11;104335;1280;95251;-73
2022/07/18 10:55:08;;;;;;;5.60;1.40;;;;;;;28.81;34.93;101178.70;104425;1277;108508;-72
2022/07/18 10:57:59;;;;;;;4.70;1.50;;;;;;;29.71;33.85;101175.40;104252;1277;138676;-72
2022/07/18 11:00:34;;;;;;;4.80;1.30;;;;;;;30.23;32.45;101171.17;104408;1277;108868;-73
2022/07/18 11:03:11;;;;;;;4.40;1.40;;;;;;;30.14;32.79;101167.60;104292;1277;138972;-73
2022/07/18 11:05:46;;;;;;;5.30;1.40;;;;;;;29.63;33.19;101166.23;104559;1277;98576;-72
2022/07/18 11:08:14;;;;;;;4.80;1.40;;;;;;;29.01;34.04;101170.19;104333;1277;139127;-72
2022/07/18 11:10:49;;;;;;;5.20;1.50;;;;;;;28.63;34.65;101171.77;104450;1277;99325;-73
2022/07/18 11:13:21;;;;;;;6.20;1.50;;;;;;;28.34;35.12;101169.45;104484;1276;109037;-72
2022/07/18 11:16:12;;;;;;;5.40;1.30;;;;;;;28.01;35.81;101167.63;104377;1277;138274;-72
2022/07/18 11:18:40;;;;;;;5.20;1.50;;;;;;;27.44;36.33;101166.27;104457;1277;95227;-73
2022/07/18 11:21:18;;;;;;;4.30;1.30;;;;;;;27.07;37.03;101170.44;104319;1277;138579;-73
2022/07/18 11:23:50;;;;;;;5.40;1.60;;;;;;;26.88;37.66;101170.02;104357;1277;99472;-73
2022/07/18 11:26:21;;;;;;;5.00;1.60;;;;;;;26.75;38.40;101166.56;104275;1277;138197;-72
2022/07/18 11:29:01;;;;;;;5.70;1.80;;;;;;;26.48;37.91;101164.36;104391;1277;95136;-73